Frankenthal- Eppstein (101 m) : 25.03.2019
Datum Zeit
(MEZ)
Temp.
(2 m)
Temp.
(20 cm)
Luftfeuchte Blattnässe Nieder-
schlag
Wind Zeit
(MEZ)
[°C] [°C] [%] [%] [mm] [m/s]
25.03.2019 02:30 2.0 0.3 77 15 0.0 0.0 02:30
  02:25 2.3 0.4 76 18 0.0 0.0 02:25
  02:20 2.5 0.5 77 14 0.0 0.0 02:20
  02:15 2.5 0.5 77 17 0.0 0.0 02:15
  02:10 2.5 0.5 77 15 0.0 0.0 02:10
  02:05 2.5 0.5 77 14 0.0 0.0 02:05
  02:00 2.5 0.6 78 11 0.0 0.0 02:00
  01:55 2.5 0.7 77 12 0.0 0.0 01:55
  01:50 2.7 0.8 77 13 0.0 0.0 01:50
  01:45 2.9 1.0 75 13 0.0 0.0 01:45
  01:40 3.2 1.1 74 11 0.0 0.6 01:40
  01:35 3.5 1.0 73 9 0.0 0.3 01:35
  01:30 3.5 0.8 73 9 0.0 0.1 01:30
  01:25 3.5 1.0 74 11 0.0 0.0 01:25
  01:20 3.5 1.3 75 11 0.0 0.0 01:20
  01:15 3.5 1.6 75 11 0.0 0.0 01:15
  01:10 3.6 1.7 75 10 0.0 0.0 01:10
  01:05 3.5 1.6 75 9 0.0 0.0 01:05
  01:00 3.4 1.4 76 10 0.0 0.0 01:00
  00:55 3.3 1.1 77 10 0.0 0.0 00:55
  00:50 3.0 0.8 78 13 0.0 0.0 00:50
  00:45 3.0 0.6 79 14 0.0 0.0 00:45
  00:40 2.8 0.4 81 14 0.0 0.0 00:40
  00:35 2.6 0.6 82 29 0.0 0.0 00:35
25.03.2019 00:30 2.6 0.8 82 34 0.0 0.0 00:30
  00:25 2.6 0.9 83 34 0.0 0.0 00:25
  00:20 2.5 0.8 83 40 0.0 0.0 00:20
  00:15 2.5 0.9 83 37 0.0 0.0 00:15
  00:10 2.8 1.2 82 32 0.0 0.0 00:10
  00:05 3.0 1.4 82 29 0.0 0.0 00:05
  00:00 3.1 1.4 81 31 0.0 0.0 00:00
24.03.2019 23:55 3.1 1.4 80 29 0.0 0.0 23:55
  23:50 3.3 1.5 78 27 0.0 0.0 23:50
  23:45 3.7 1.6 78 26 0.0 0.0 23:45
  23:40 4.0 1.8 78 24 0.0 0.0 23:40
  23:35 4.3 2.1 77 19 0.0 0.0 23:35
  23:30 4.5 2.1 78 16 0.0 0.0 23:30
  23:25 4.5 2.1 77 16 0.0 0.0 23:25
  23:20 4.7 2.2 77 18 0.0 0.0 23:20
  23:15 4.9 2.4 77 17 0.0 0.0 23:15
  23:10 5.1 2.6 77 16 0.0 0.0 23:10
  23:05 5.2 2.7 77 19 0.0 0.0 23:05
  23:00 5.4 3.1 77 15 0.0 0.0 23:00
  22:55 5.6 3.5 77 15 0.0 0.0 22:55
  22:50 5.7 3.8 77 13 0.0 0.0 22:50
  22:45 5.8 4.2 78 13 0.0 0.0 22:45
  22:40 5.9 4.7 77 17 0.0 0.0 22:40
  22:35 6.2 5.3 77 16 0.0 0.0 22:35
  22:30 6.4 5.6 77 11 0.0 0.0 22:30
  22:25 6.5 5.7 77 11 0.0 0.0 22:25
  22:20 6.7 5.8 77 11 0.0 0.0 22:20
  22:15 6.8 6.1 77 10 0.0 0.0 22:15
  22:10 7.0 6.5 76 11 0.0 0.0 22:10
  22:05 7.2 6.8 75 9 0.0 0.0 22:05
  22:00 7.5 7.1 75 9 0.0 0.0 22:00
24.03.2019 21:55 7.7 7.3 74 8 0.0 0.0 21:55
  21:50 7.9 7.6 74 7 0.0 0.0 21:50
  21:45 8.1 7.8 73 7 0.0 0.0 21:45
  21:40 8.3 8.0 73 6 0.0 0.1 21:40
  21:35 8.3 8.1 73 6 0.0 0.1 21:35
  21:30 8.3 8.1 73 6 0.0 0.0 21:30
  21:25 8.2 8.0 73 6 0.0 0.3 21:25
  21:20 8.2 7.8 74 6 0.0 0.2 21:20
  21:15 8.1 7.6 74 6 0.0 0.1 21:15
  21:10 8.0 7.4 75 6 0.0 0.0 21:10
  21:05 8.0 7.3 75 6 0.0 0.0 21:05
  21:00 7.9 7.2 75 6 0.0 0.0 21:00
  20:55 7.8 7.0 75 6 0.0 0.0 20:55
  20:50 7.8 6.9 74 7 0.0 0.0 20:50
  20:45 7.8 6.8 74 8 0.0 0.0 20:45
  20:40 8.0 6.9 74 8 0.0 0.0 20:40
  20:35 8.0 7.1 73 8 0.0 0.0 20:35
  20:30 8.2 7.3 73 8 0.0 0.0 20:30
  20:25 8.4 7.7 72 8 0.0 0.0 20:25
  20:20 8.6 7.9 72 7 0.0 0.0 20:20
  20:15 8.8 8.2 72 6 0.0 0.0 20:15
  20:10 8.9 8.3 72 6 0.0 0.0 20:10
  20:05 9.0 8.5 71 6 0.0 0.0 20:05
  20:00 9.2 8.7 71 6 0.0 0.2 20:00
24.03.2019 19:55 9.3 8.8 70 6 0.0 0.1 19:55
  19:50 9.5 9.0 70 5 0.0 0.1 19:50
  19:45 9.6 9.2 69 5 0.0 0.1 19:45
  19:40 9.7 9.3 69 5 0.0 0.2 19:40
  19:35 9.9 9.6 68 5 0.0 0.1 19:35
  19:30 10.1 9.8 68 5 0.0 0.2 19:30
  19:25 10.2 9.9 67 5 0.0 0.1 19:25
  19:20 10.4 10.1 67 4 0.0 0.0 19:20
  19:15 10.5 10.3 67 4 0.0 0.2 19:15
  19:10 10.6 10.4 67 4 0.0 0.1 19:10
  19:05 10.7 10.5 67 4 0.0 0.2 19:05
  19:00 10.9 10.8 67 4 0.0 0.2 19:00
  18:55 11.1 11.0 67 4 0.0 0.1 18:55
  18:50 11.3 11.1 67 4 0.0 0.2 18:50
  18:45 11.4 11.3 67 4 0.0 0.3 18:45
  18:40 11.5 11.4 67 4 0.0 0.1 18:40
  18:35 11.6 11.6 66 4 0.0 0.0 18:35
  18:30 11.8 11.7 66 4 0.0 0.2 18:30
  18:25 11.8 11.8 66 3 0.0 0.3 18:25
  18:20 11.9 11.9 65 3 0.0 0.5 18:20
  18:15 11.9 11.9 64 3 0.0 0.6 18:15
  18:10 12.0 12.0 64 3 0.0 0.4 18:10
  18:05 12.1 12.1 63 3 0.0 0.7 18:05
  18:00 12.3 12.3 63 3 0.0 0.8 18:00
24.03.2019 17:55 12.4 12.4 63 3 0.0 1.0 17:55
  17:50 12.5 12.5 63 3 0.0 1.4 17:50
  17:45 12.6 12.6 63 3 0.0 0.6 17:45
  17:40 12.7 12.8 63 3 0.0 0.6 17:40
  17:35 12.9 12.9 62 3 0.0 1.2 17:35
  17:30 13.0 13.1 61 3 0.0 1.0 17:30
  17:25 13.2 13.3 61 3 0.0 1.1 17:25
  17:20 13.4 13.5 61 3 0.0 1.0 17:20
  17:15 13.5 13.6 61 3 0.0 1.2 17:15
  17:10 13.6 13.7 60 3 0.0 1.0 17:10
  17:05 13.8 13.9 60 3 0.0 1.5 17:05
  17:00 13.9 14.0 59 3 0.0 1.3 17:00
  16:55 14.2 14.2 58 3 0.0 1.0 16:55
  16:50 14.3 14.5 57 3 0.0 0.7 16:50
  16:45 14.3 14.5 58 3 0.0 0.5 16:45
  16:40 14.4 14.6 58 3 0.0 0.9 16:40
  16:35 14.5 14.8 57 3 0.0 1.4 16:35
  16:30 14.5 14.8 58 3 0.0 1.0 16:30
  16:25 14.4 14.7 57 3 0.0 0.9 16:25
  16:20 14.8 15.1 57 3 0.0 1.1 16:20
  16:15 15.2 15.6 58 3 0.0 0.4 16:15
  16:10 15.1 15.5 59 4 0.0 0.6 16:10
  16:05 14.8 15.1 59 3 0.0 0.9 16:05
  16:00 14.8 15.1 60 3 0.0 0.9 16:00
24.03.2019 15:55 14.7 15.0 60 3 0.0 1.0 15:55
  15:50 14.8 15.1 60 3 0.0 0.8 15:50
  15:45 14.7 15.0 60 3 0.0 0.7 15:45
  15:40 14.8 15.1 59 4 0.0 0.9 15:40
  15:35 14.9 15.3 59 4 0.0 0.4 15:35
  15:30 15.2 15.6 58 4 0.0 0.6 15:30
  15:25 15.4 15.9 58 4 0.0 0.4 15:25
  15:20 15.6 16.2 59 4 0.0 0.3 15:20
  15:15 15.5 16.2 59 4 0.0 0.3 15:15
  15:10 15.4 16.1 58 4 0.0 1.0 15:10
  15:05 15.7 16.6 58 4 0.0 0.4 15:05
  15:00 15.9 16.7 58 4 0.0 0.8 15:00
  14:55 16.0 16.8 59 4 0.0 0.8 14:55
  14:50 15.7 16.4 60 4 0.0 0.8 14:50
  14:45 15.3 16.0 61 4 0.0 1.1 14:45
  14:40 15.0 15.6 61 4 0.0 0.9 14:40
  14:35 14.8 15.5 61 4 0.0 1.3 14:35
  14:30 14.9 15.6 61 4 0.0 0.6 14:30
  14:25 15.1 15.7 60 4 0.0 1.4 14:25
  14:20 15.3 16.0 61 4 0.0 0.8 14:20
  14:15 15.2 15.9 62 4 0.0 0.7 14:15
  14:10 15.2 15.8 61 4 0.0 0.5 14:10
  14:05 15.1 15.7 61 4 0.0 0.6 14:05
  14:00 15.2 15.8 61 4 0.0 1.2 14:00
24.03.2019 13:55 15.0 15.8 61 4 0.0 0.4 13:55
  13:50 15.0 15.7 60 4 0.0 0.8 13:50
  13:45 15.5 16.3 59 4 0.0 0.7 13:45
  13:40 15.7 16.5 59 4 0.0 0.8 13:40
  13:35 15.7 16.5 59 4 0.0 0.8 13:35
  13:30 15.9 16.6 58 4 0.0 1.0 13:30
  13:25 15.9 16.8 59 4 0.0 0.5 13:25
  13:20 15.9 16.7 60 4 0.0 0.4 13:20
  13:15 15.6 16.3 60 4 0.0 0.6 13:15
  13:10 15.8 16.4 60 4 0.0 1.1 13:10
  13:05 15.6 16.2 61 4 0.0 0.4 13:05
  13:00 15.5 16.1 61 4 0.0 0.7 13:00
  12:55 15.2 15.8 61 4 0.0 0.5 12:55
  12:50 15.4 16.0 61 4 0.0 0.7 12:50
  12:45 15.5 16.1 61 4 0.0 0.6 12:45
  12:40 15.1 15.7 61 4 0.0 0.5 12:40
  12:35 15.2 15.9 61 4 0.0 0.7 12:35
  12:30 15.1 15.9 61 4 0.0 0.8 12:30
  12:25 15.3 16.1 62 5 0.0 0.3 12:25
  12:20 15.2 15.9 62 4 0.0 0.9 12:20
  12:15 15.0 15.8 62 4 0.0 0.5 12:15
  12:10 14.8 15.6 62 4 0.0 0.5 12:10
  12:05 14.8 15.6 63 4 0.0 0.5 12:05
  12:00 14.8 15.5 63 4 0.0 0.6 12:00
24.03.2019 11:55 14.9 15.6 63 5 0.0 0.6 11:55
  11:50 14.6 15.6 63 5 0.0 0.5 11:50
  11:45 14.6 15.3 63 5 0.0 0.7 11:45
  11:40 14.7 15.3 64 5 0.0 0.5 11:40
  11:35 14.5 15.3 64 5 0.0 0.7 11:35
  11:30 14.3 14.9 65 5 0.0 0.7 11:30
  11:25 14.0 14.8 65 5 0.0 0.8 11:25
  11:20 14.0 14.7 65 4 0.0 0.9 11:20
  11:15 13.9 14.7 65 5 0.0 0.9 11:15
  11:10 13.7 14.5 66 5 0.0 0.7 11:10
  11:05 13.7 14.5 66 5 0.0 0.5 11:05
  11:00 13.6 14.4 67 5 0.0 0.7 11:00
  10:55 13.4 14.1 67 5 0.0 0.6 10:55
  10:50 12.9 13.7 67 5 0.0 0.2 10:50
  10:45 13.0 13.8 68 5 0.0 0.5 10:45
  10:40 12.7 13.6 68 5 0.0 0.6 10:40
  10:35 12.8 13.4 68 5 0.0 0.9 10:35
  10:30 13.0 13.7 69 5 0.0 0.4 10:30
  10:25 12.7 13.2 70 5 0.0 0.2 10:25
  10:20 12.4 13.1 71 5 0.0 0.4 10:20
  10:15 12.1 12.7 71 5 0.0 0.6 10:15
  10:10 12.2 12.8 72 5 0.0 0.5 10:10
  10:05 11.8 12.4 72 5 0.0 0.5 10:05
  10:00 11.6 12.3 73 5 0.0 0.4 10:00
24.03.2019 09:55 11.5 12.1 73 5 0.0 0.7 09:55
  09:50 11.4 12.1 74 5 0.0 0.5 09:50
  09:45 11.1 11.8 75 5 0.0 0.6 09:45
  09:40 11.2 11.6 76 5 0.0 0.8 09:40
  09:35 10.8 11.3 77 5 0.0 0.8 09:35
  09:30 10.4 11.0 78 5 0.0 0.9 09:30
  09:25 10.3 10.8 78 5 0.0 1.1 09:25
  09:20 10.2 10.6 79 5 0.0 1.1 09:20
  09:15 10.1 10.5 79 5 0.0 1.0 09:15
  09:10 9.8 10.1 80 5 0.0 1.1 09:10
  09:05 9.6 9.9 80 5 0.0 1.1 09:05
  09:00 9.5 9.7 81 6 0.0 1.1 09:00
  08:55 9.4 9.7 82 6 0.0 0.9 08:55
  08:50 9.1 9.4 83 6 0.0 0.8 08:50
  08:45 8.9 9.0 83 6 0.0 1.0 08:45
  08:40 8.6 8.7 83 6 0.0 1.4 08:40
  08:35 8.6 8.7 84 6 0.0 1.2 08:35
  08:30 8.4 8.5 85 6 0.0 0.6 08:30
  08:25 8.2 8.2 86 6 0.0 0.9 08:25
  08:20 8.0 7.9 87 7 0.0 0.7 08:20
  08:15 7.7 7.7 87 7 0.0 1.2 08:15
  08:10 7.5 7.5 88 7 0.0 0.8 08:10
  08:05 7.3 7.3 89 8 0.0 0.9 08:05
  08:00 7.1 7.1 90 9 0.0 0.6 08:00
24.03.2019 07:55 6.8 6.8 90 11 0.0 0.8 07:55
  07:50 6.6 6.5 91 18 0.0 0.7 07:50
  07:45 6.4 6.3 92 46 0.0 0.2 07:45
  07:40 6.2 6.1 92 62 0.0 0.2 07:40
  07:35 6.1 6.0 93 70 0.0 0.2 07:35
  07:30 6.1 5.7 94 75 0.0 0.2 07:30
  07:25 5.9 5.2 94 78 0.0 0.0 07:25
  07:20 5.5 4.8 94 80 0.0 0.0 07:20
  07:15 5.1 4.4 94 82 0.0 0.0 07:15
  07:10 4.7 3.9 94 83 0.0 0.0 07:10
  07:05 4.3 3.3 94 83 0.0 0.0 07:05
  07:00 3.9 2.3 94 83 0.0 0.0 07:00
  06:55 3.4 1.6 94 83 0.0 0.0 06:55
  06:50 3.1 1.4 94 83 0.0 0.0 06:50
  06:45 2.9 1.4 94 83 0.0 0.0 06:45
  06:40 2.7 1.4 93 82 0.0 0.0 06:40
  06:35 2.6 1.5 93 82 0.0 0.0 06:35
  06:30 2.7 1.7 93 81 0.0 0.0 06:30
  06:25 2.8 1.8 93 80 0.0 0.0 06:25
  06:20 2.9 1.9 93 79 0.0 0.0 06:20
  06:15 2.8 2.0 93 79 0.0 0.0 06:15
  06:10 2.9 2.0 93 78 0.0 0.0 06:10
  06:05 2.9 2.0 92 77 0.0 0.0 06:05
  06:00 3.0 2.1 92 77 0.0 0.0 06:00
24.03.2019 05:55 3.0 2.1 92 76 0.0 0.0 05:55
  05:50 3.1 2.2 92 75 0.0 0.0 05:50
  05:45 3.2 2.2 92 74 0.0 0.0 05:45
  05:40 3.2 2.3 92 73 0.0 0.0 05:40
  05:35 3.3 2.3 92 73 0.0 0.0 05:35
  05:30 3.3 2.1 92 72 0.0 0.0 05:30
  05:25 3.2 1.9 92 72 0.0 0.0 05:25
  05:20 3.1 1.7 91 71 0.0 0.0 05:20
  05:15 3.1 1.6 91 71 0.0 0.0 05:15
  05:10 3.1 1.5 91 70 0.0 0.0 05:10
  05:05 3.1 1.6 91 68 0.0 0.0 05:05
  05:00 3.2 1.7 91 68 0.0 0.0 05:00
  04:55 3.2 1.9 90 66 0.0 0.0 04:55
  04:50 3.3 2.1 90 66 0.0 0.0 04:50
  04:45 3.5 2.3 90 65 0.0 0.0 04:45
  04:40 3.5 2.5 90 63 0.0 0.0 04:40
  04:35 3.6 2.6 90 62 0.0 0.0 04:35
  04:30 3.7 2.7 89 61 0.0 0.0 04:30
  04:25 3.8 3.0 89 59 0.0 0.0 04:25
  04:20 4.1 3.2 89 57 0.0 0.0 04:20
  04:15 4.2 3.3 89 56 0.0 0.0 04:15
  04:10 4.2 3.4 89 55 0.0 0.0 04:10
  04:05 4.2 3.5 89 54 0.0 0.0 04:05
  04:00 4.3 3.5 89 53 0.0 0.0 04:00
24.03.2019 03:55 4.3 3.5 89 52 0.0 0.0 03:55
  03:50 4.3 3.5 89 52 0.0 0.0 03:50
  03:45 4.3 3.5 89 51 0.0 0.0 03:45
  03:40 4.4 3.5 89 50 0.0 0.0 03:40
  03:35 4.4 3.4 89 50 0.0 0.0 03:35
  03:30 4.3 3.3 88 49 0.0 0.0 03:30
  03:25 4.3 3.3 88 48 0.0 0.0 03:25
  03:20 4.4 3.3 88 46 0.0 0.0 03:20
  03:15 4.4 3.5 87 43 0.0 0.0 03:15
  03:10 4.6 3.7 87 39 0.0 0.0 03:10
  03:05 4.6 4.0 87 33 0.0 0.0 03:05
  03:00 4.7 4.1 87 28 0.0 0.1 03:00
  02:55 4.8 4.2 87 28 0.0 0.1 02:55
  02:50 4.8 4.2 86 28 0.0 0.0 02:50
  02:45 4.9 4.2 86 26 0.0 0.0 02:45
  02:40 5.0 4.3 86 22 0.0 0.0 02:40
  02:35 5.1 4.4 86 22 0.0 0.0 02:35
    Temp.
(2 m)
Temp.
(20 cm)
Luftfeuchte Blattnässe Nieder-
schlag
Wind  
[°C] [°C] [%] [%] [mm] [m/s]
 
  Ø 8.9 8.5 74 19 - 0.4 Ø
  Min. 2.0 0.3 - - - - Min.
  Max. 16.0 16.8 - - - - Max.
  - - - - 0.0 -
Quelle: Agrarmeteorologie Rheinland-Pfalz,
alle Angaben ohne Gewähr!
Zuletzt geändert: 25.03.19 - 02:39 Uhr